sensor_id;sensor_type;location;lat;lon;timestamp;pressure;altitude;pressure_sealevel;temperature
11926;BMP180;6022;48.768;18.608;2023-09-08T00:00:20;99150.91;;;17.45
11926;BMP180;6022;48.768;18.608;2023-09-08T00:02:47;99152.47;;;17.37
11926;BMP180;6022;48.768;18.608;2023-09-08T00:05:14;99142.16;;;17.48
11926;BMP180;6022;48.768;18.608;2023-09-08T00:07:41;99144.41;;;17.41
11926;BMP180;6022;48.768;18.608;2023-09-08T00:10:09;99146.25;;;17.50
11926;BMP180;6022;48.768;18.608;2023-09-08T00:12:38;99152.09;;;17.41
11926;BMP180;6022;48.768;18.608;2023-09-08T00:15:07;99149.16;;;17.46
11926;BMP180;6022;48.768;18.608;2023-09-08T00:17:34;99147.44;;;17.46
11926;BMP180;6022;48.768;18.608;2023-09-08T00:20:01;99147.47;;;17.36
11926;BMP180;6022;48.768;18.608;2023-09-08T00:22:28;99151.00;;;17.24
11926;BMP180;6022;48.768;18.608;2023-09-08T00:24:55;99145.63;;;17.27
11926;BMP180;6022;48.768;18.608;2023-09-08T00:27:22;99142.84;;;17.19
11926;BMP180;6022;48.768;18.608;2023-09-08T00:29:49;99143.78;;;17.07
11926;BMP180;6022;48.768;18.608;2023-09-08T00:32:17;99136.19;;;17.05
11926;BMP180;6022;48.768;18.608;2023-09-08T00:34:44;99142.25;;;17.04
11926;BMP180;6022;48.768;18.608;2023-09-08T00:37:12;99138.88;;;16.93
11926;BMP180;6022;48.768;18.608;2023-09-08T00:39:39;99136.31;;;16.93
11926;BMP180;6022;48.768;18.608;2023-09-08T00:42:06;99133.75;;;16.93
11926;BMP180;6022;48.768;18.608;2023-09-08T00:44:34;99135.41;;;16.94
11926;BMP180;6022;48.768;18.608;2023-09-08T00:47:01;99131.66;;;16.98
11926;BMP180;6022;48.768;18.608;2023-09-08T00:49:28;99134.22;;;16.98
11926;BMP180;6022;48.768;18.608;2023-09-08T00:51:55;99127.25;;;16.89
11926;BMP180;6022;48.768;18.608;2023-09-08T00:54:23;99133.22;;;16.79
11926;BMP180;6022;48.768;18.608;2023-09-08T00:56:57;99130.50;;;16.80
11926;BMP180;6022;48.768;18.608;2023-09-08T00:59:25;99130.78;;;16.77
11926;BMP180;6022;48.768;18.608;2023-09-08T01:01:52;99133.44;;;16.76
11926;BMP180;6022;48.768;18.608;2023-09-08T01:04:20;99124.38;;;16.61
11926;BMP180;6022;48.768;18.608;2023-09-08T01:06:49;99135.19;;;16.54
11926;BMP180;6022;48.768;18.608;2023-09-08T01:09:18;99139.97;;;16.58
11926;BMP180;6022;48.768;18.608;2023-09-08T01:11:46;99131.25;;;16.50
11926;BMP180;6022;48.768;18.608;2023-09-08T01:14:13;99135.66;;;16.59
11926;BMP180;6022;48.768;18.608;2023-09-08T01:16:44;99136.94;;;16.64
11926;BMP180;6022;48.768;18.608;2023-09-08T01:19:14;99138.47;;;16.66
11926;BMP180;6022;48.768;18.608;2023-09-08T01:25:29;99138.69;;;16.63
11926;BMP180;6022;48.768;18.608;2023-09-08T01:27:25;99135.09;;;16.55
11926;BMP180;6022;48.768;18.608;2023-09-08T01:29:54;99133.31;;;16.56
11926;BMP180;6022;48.768;18.608;2023-09-08T01:32:22;99132.50;;;16.44
11926;BMP180;6022;48.768;18.608;2023-09-08T01:34:49;99126.00;;;16.51
11926;BMP180;6022;48.768;18.608;2023-09-08T01:37:16;99127.84;;;16.60
11926;BMP180;6022;48.768;18.608;2023-09-08T01:39:44;99123.09;;;16.66
11926;BMP180;6022;48.768;18.608;2023-09-08T01:42:11;99124.38;;;16.72
11926;BMP180;6022;48.768;18.608;2023-09-08T01:44:38;99123.78;;;16.79
11926;BMP180;6022;48.768;18.608;2023-09-08T01:47:05;99129.13;;;16.76
11926;BMP180;6022;48.768;18.608;2023-09-08T01:49:32;99121.91;;;16.70
11926;BMP180;6022;48.768;18.608;2023-09-08T01:51:59;99135.19;;;16.64
11926;BMP180;6022;48.768;18.608;2023-09-08T01:54:26;99131.13;;;16.62
11926;BMP180;6022;48.768;18.608;2023-09-08T01:56:53;99128.00;;;16.59
11926;BMP180;6022;48.768;18.608;2023-09-08T01:59:20;99125.53;;;16.57
11926;BMP180;6022;48.768;18.608;2023-09-08T02:01:47;99128.47;;;16.53
11926;BMP180;6022;48.768;18.608;2023-09-08T02:04:15;99133.09;;;16.59
11926;BMP180;6022;48.768;18.608;2023-09-08T02:06:42;99133.91;;;16.59
11926;BMP180;6022;48.768;18.608;2023-09-08T02:09:11;99138.34;;;16.57
11926;BMP180;6022;48.768;18.608;2023-09-08T02:11:38;99132.03;;;16.50
11926;BMP180;6022;48.768;18.608;2023-09-08T02:14:06;99138.09;;;16.38
11926;BMP180;6022;48.768;18.608;2023-09-08T02:16:34;99134.72;;;16.27
11926;BMP180;6022;48.768;18.608;2023-09-08T02:19:01;99124.94;;;16.21
11926;BMP180;6022;48.768;18.608;2023-09-08T02:21:29;99120.94;;;16.17
11926;BMP180;6022;48.768;18.608;2023-09-08T02:23:56;99127.19;;;16.13
11926;BMP180;6022;48.768;18.608;2023-09-08T02:26:23;99128.34;;;16.09
11926;BMP180;6022;48.768;18.608;2023-09-08T02:28:50;99122.78;;;16.04
11926;BMP180;6022;48.768;18.608;2023-09-08T02:31:18;99126.03;;;16.06
11926;BMP180;6022;48.768;18.608;2023-09-08T02:33:45;99121.13;;;16.03
11926;BMP180;6022;48.768;18.608;2023-09-08T02:36:12;99124.19;;;16.08
11926;BMP180;6022;48.768;18.608;2023-09-08T02:38:39;99124.41;;;16.05
11926;BMP180;6022;48.768;18.608;2023-09-08T02:41:06;99128.72;;;16.05
11926;BMP180;6022;48.768;18.608;2023-09-08T02:43:33;99119.75;;;15.99
11926;BMP180;6022;48.768;18.608;2023-09-08T02:46:00;99123.00;;;16.01
11926;BMP180;6022;48.768;18.608;2023-09-08T02:48:27;99114.16;;;16.05
11926;BMP180;6022;48.768;18.608;2023-09-08T02:50:55;99107.75;;;16.00
11926;BMP180;6022;48.768;18.608;2023-09-08T02:53:23;99117.28;;;15.98
11926;BMP180;6022;48.768;18.608;2023-09-08T02:55:50;99113.91;;;15.97
11926;BMP180;6022;48.768;18.608;2023-09-08T02:58:17;99120.44;;;16.01
11926;BMP180;6022;48.768;18.608;2023-09-08T03:00:44;99112.41;;;16.06
11926;BMP180;6022;48.768;18.608;2023-09-08T03:03:11;99110.22;;;16.12
11926;BMP180;6022;48.768;18.608;2023-09-08T03:05:38;99109.16;;;16.15
11926;BMP180;6022;48.768;18.608;2023-09-08T03:08:06;99108.38;;;16.14
11926;BMP180;6022;48.768;18.608;2023-09-08T03:10:33;99106.03;;;16.11
11926;BMP180;6022;48.768;18.608;2023-09-08T03:13:01;99102.53;;;16.12
11926;BMP180;6022;48.768;18.608;2023-09-08T03:15:28;99108.59;;;16.11
11926;BMP180;6022;48.768;18.608;2023-09-08T03:17:57;99098.34;;;16.11
11926;BMP180;6022;48.768;18.608;2023-09-08T03:20:25;99109.97;;;16.15
11926;BMP180;6022;48.768;18.608;2023-09-08T03:22:53;99100.91;;;16.11
11926;BMP180;6022;48.768;18.608;2023-09-08T03:25:21;99104.16;;;16.02
11926;BMP180;6022;48.768;18.608;2023-09-08T03:27:48;99111.56;;;15.94
11926;BMP180;6022;48.768;18.608;2023-09-08T03:30:15;99107.84;;;15.88
11926;BMP180;6022;48.768;18.608;2023-09-08T03:32:42;99109.22;;;15.81
11926;BMP180;6022;48.768;18.608;2023-09-08T03:35:09;99113.75;;;15.77
11926;BMP180;6022;48.768;18.608;2023-09-08T03:37:36;99108.72;;;15.65
11926;BMP180;6022;48.768;18.608;2023-09-08T03:40:04;99112.41;;;15.61
11926;BMP180;6022;48.768;18.608;2023-09-08T03:42:32;99111.94;;;15.56
11926;BMP180;6022;48.768;18.608;2023-09-08T03:45:01;99118.69;;;15.57
11926;BMP180;6022;48.768;18.608;2023-09-08T03:47:28;99113.56;;;15.57
11926;BMP180;6022;48.768;18.608;2023-09-08T03:49:56;99117.88;;;15.56
11926;BMP180;6022;48.768;18.608;2023-09-08T03:52:23;99109.38;;;15.56
11926;BMP180;6022;48.768;18.608;2023-09-08T03:54:50;99121.22;;;15.57
11926;BMP180;6022;48.768;18.608;2023-09-08T03:57:17;99118.91;;;15.54
11926;BMP180;6022;48.768;18.608;2023-09-08T03:59:44;99116.34;;;15.54
11926;BMP180;6022;48.768;18.608;2023-09-08T04:02:11;99119.81;;;15.53
11926;BMP180;6022;48.768;18.608;2023-09-08T04:04:38;99124.84;;;15.54
11926;BMP180;6022;48.768;18.608;2023-09-08T04:07:06;99125.78;;;15.53
11926;BMP180;6022;48.768;18.608;2023-09-08T04:09:33;99124.72;;;15.56
11926;BMP180;6022;48.768;18.608;2023-09-08T04:12:00;99131.38;;;15.58
11926;BMP180;6022;48.768;18.608;2023-09-08T04:14:28;99130.44;;;15.59
11926;BMP180;6022;48.768;18.608;2023-09-08T04:16:57;99130.22;;;15.62
11926;BMP180;6022;48.768;18.608;2023-09-08T04:19:24;99137.28;;;15.59
11926;BMP180;6022;48.768;18.608;2023-09-08T04:21:51;99133.00;;;15.59
11926;BMP180;6022;48.768;18.608;2023-09-08T04:24:18;99135.56;;;15.59
11926;BMP180;6022;48.768;18.608;2023-09-08T04:26:47;99133.75;;;15.49
11926;BMP180;6022;48.768;18.608;2023-09-08T04:29:14;99135.00;;;15.44
11926;BMP180;6022;48.768;18.608;2023-09-08T04:31:41;99134.81;;;15.47
11926;BMP180;6022;48.768;18.608;2023-09-08T04:34:08;99132.84;;;15.50
11926;BMP180;6022;48.768;18.608;2023-09-08T04:36:35;99130.16;;;15.51
11926;BMP180;6022;48.768;18.608;2023-09-08T04:39:02;99133.31;;;15.55
11926;BMP180;6022;48.768;18.608;2023-09-08T04:41:29;99136.81;;;15.54
11926;BMP180;6022;48.768;18.608;2023-09-08T04:43:56;99139.84;;;15.59
11926;BMP180;6022;48.768;18.608;2023-09-08T04:46:27;99131.63;;;15.66
11926;BMP180;6022;48.768;18.608;2023-09-08T04:48:54;99133.34;;;15.89
11926;BMP180;6022;48.768;18.608;2023-09-08T04:51:21;99138.13;;;16.15
11926;BMP180;6022;48.768;18.608;2023-09-08T04:53:48;99141.25;;;16.53
11926;BMP180;6022;48.768;18.608;2023-09-08T04:56:16;99130.72;;;16.99
11926;BMP180;6022;48.768;18.608;2023-09-08T04:58:43;99136.66;;;17.21
11926;BMP180;6022;48.768;18.608;2023-09-08T05:01:11;99130.00;;;17.30
11926;BMP180;6022;48.768;18.608;2023-09-08T05:03:38;99133.75;;;17.77
11926;BMP180;6022;48.768;18.608;2023-09-08T05:06:06;99131.25;;;18.17
11926;BMP180;6022;48.768;18.608;2023-09-08T05:08:33;99128.63;;;19.06
11926;BMP180;6022;48.768;18.608;2023-09-08T05:11:04;99129.47;;;19.35
11926;BMP180;6022;48.768;18.608;2023-09-08T05:13:31;99128.56;;;19.92
11926;BMP180;6022;48.768;18.608;2023-09-08T05:15:58;99126.13;;;20.45
11926;BMP180;6022;48.768;18.608;2023-09-08T05:18:39;99135.59;;;20.54
11926;BMP180;6022;48.768;18.608;2023-09-08T05:21:07;99134.34;;;20.58
11926;BMP180;6022;48.768;18.608;2023-09-08T05:23:35;99136.72;;;21.05
11926;BMP180;6022;48.768;18.608;2023-09-08T05:26:02;99138.97;;;21.44
11926;BMP180;6022;48.768;18.608;2023-09-08T05:28:29;99135.44;;;21.45
11926;BMP180;6022;48.768;18.608;2023-09-08T05:30:56;99137.94;;;21.28
11926;BMP180;6022;48.768;18.608;2023-09-08T05:33:24;99126.97;;;21.26
11926;BMP180;6022;48.768;18.608;2023-09-08T05:35:52;99128.28;;;21.57
11926;BMP180;6022;48.768;18.608;2023-09-08T05:38:22;99129.53;;;21.70
11926;BMP180;6022;48.768;18.608;2023-09-08T05:40:50;99127.28;;;22.68
11926;BMP180;6022;48.768;18.608;2023-09-08T05:43:17;99128.91;;;23.58
11926;BMP180;6022;48.768;18.608;2023-09-08T05:45:44;99126.25;;;22.53
11926;BMP180;6022;48.768;18.608;2023-09-08T05:48:11;99119.97;;;22.88
11926;BMP180;6022;48.768;18.608;2023-09-08T05:50:46;99127.91;;;23.59
11926;BMP180;6022;48.768;18.608;2023-09-08T05:53:13;99125.34;;;23.75
11926;BMP180;6022;48.768;18.608;2023-09-08T05:55:40;99134.88;;;24.06
11926;BMP180;6022;48.768;18.608;2023-09-08T05:58:08;99131.81;;;23.95
11926;BMP180;6022;48.768;18.608;2023-09-08T06:00:35;99127.59;;;23.86
11926;BMP180;6022;48.768;18.608;2023-09-08T06:03:04;99134.72;;;23.84
11926;BMP180;6022;48.768;18.608;2023-09-08T06:05:32;99129.88;;;23.89
11926;BMP180;6022;48.768;18.608;2023-09-08T06:07:59;99129.19;;;24.34
11926;BMP180;6022;48.768;18.608;2023-09-08T06:10:37;99125.75;;;24.42
11926;BMP180;6022;48.768;18.608;2023-09-08T06:13:06;99135.84;;;25.21
11926;BMP180;6022;48.768;18.608;2023-09-08T06:15:37;99132.78;;;24.79
11926;BMP180;6022;48.768;18.608;2023-09-08T06:18:05;99133.34;;;25.35
11926;BMP180;6022;48.768;18.608;2023-09-08T06:20:34;99121.28;;;24.82
11926;BMP180;6022;48.768;18.608;2023-09-08T06:23:02;99131.44;;;24.45
11926;BMP180;6022;48.768;18.608;2023-09-08T06:25:29;99132.81;;;25.09
11926;BMP180;6022;48.768;18.608;2023-09-08T06:27:57;99131.41;;;25.82
11926;BMP180;6022;48.768;18.608;2023-09-08T06:30:47;99129.38;;;26.71
11926;BMP180;6022;48.768;18.608;2023-09-08T06:33:14;99126.41;;;26.31
11926;BMP180;6022;48.768;18.608;2023-09-08T06:35:43;99117.63;;;26.46
11926;BMP180;6022;48.768;18.608;2023-09-08T06:38:17;99116.56;;;26.26
11926;BMP180;6022;48.768;18.608;2023-09-08T06:40:44;99124.25;;;25.98
11926;BMP180;6022;48.768;18.608;2023-09-08T06:43:14;99116.19;;;26.29
11926;BMP180;6022;48.768;18.608;2023-09-08T06:45:49;99122.56;;;26.56
11926;BMP180;6022;48.768;18.608;2023-09-08T06:48:19;99122.50;;;26.63
11926;BMP180;6022;48.768;18.608;2023-09-08T06:50:48;99123.97;;;27.50
11926;BMP180;6022;48.768;18.608;2023-09-08T06:53:18;99119.44;;;27.59
11926;BMP180;6022;48.768;18.608;2023-09-08T06:55:45;99120.13;;;27.46
11926;BMP180;6022;48.768;18.608;2023-09-08T06:58:12;99125.50;;;28.07
11926;BMP180;6022;48.768;18.608;2023-09-08T07:00:42;99126.22;;;28.49
11926;BMP180;6022;48.768;18.608;2023-09-08T07:03:09;99121.31;;;28.67
11926;BMP180;6022;48.768;18.608;2023-09-08T07:05:39;99127.63;;;28.91
11926;BMP180;6022;48.768;18.608;2023-09-08T07:08:06;99123.47;;;28.03
11926;BMP180;6022;48.768;18.608;2023-09-08T07:10:34;99121.28;;;28.60
11926;BMP180;6022;48.768;18.608;2023-09-08T07:13:01;99130.66;;;29.35
11926;BMP180;6022;48.768;18.608;2023-09-08T07:15:28;99121.03;;;29.55
11926;BMP180;6022;48.768;18.608;2023-09-08T07:17:56;99126.69;;;29.71
11926;BMP180;6022;48.768;18.608;2023-09-08T07:20:23;99119.44;;;29.60
11926;BMP180;6022;48.768;18.608;2023-09-08T07:22:50;99124.25;;;29.57
11926;BMP180;6022;48.768;18.608;2023-09-08T07:25:21;99122.09;;;29.86
11926;BMP180;6022;48.768;18.608;2023-09-08T07:27:53;99112.66;;;29.91
11926;BMP180;6022;48.768;18.608;2023-09-08T07:30:21;99108.56;;;30.53
11926;BMP180;6022;48.768;18.608;2023-09-08T07:32:48;99106.56;;;30.42
11926;BMP180;6022;48.768;18.608;2023-09-08T07:35:15;99107.00;;;29.75
11926;BMP180;6022;48.768;18.608;2023-09-08T07:37:44;99107.47;;;28.73
11926;BMP180;6022;48.768;18.608;2023-09-08T07:40:12;99095.25;;;28.46
11926;BMP180;6022;48.768;18.608;2023-09-08T07:42:42;99100.63;;;28.38
11926;BMP180;6022;48.768;18.608;2023-09-08T07:45:09;99100.69;;;29.57
11926;BMP180;6022;48.768;18.608;2023-09-08T07:47:39;99098.47;;;30.50
11926;BMP180;6022;48.768;18.608;2023-09-08T07:50:22;99085.50;;;30.81
11926;BMP180;6022;48.768;18.608;2023-09-08T07:52:51;99090.66;;;30.37
11926;BMP180;6022;48.768;18.608;2023-09-08T07:55:19;99091.25;;;30.46
11926;BMP180;6022;48.768;18.608;2023-09-08T07:57:46;99092.44;;;31.06
11926;BMP180;6022;48.768;18.608;2023-09-08T08:00:14;99100.34;;;31.67
11926;BMP180;6022;48.768;18.608;2023-09-08T08:02:51;99093.50;;;30.29
11926;BMP180;6022;48.768;18.608;2023-09-08T08:05:24;99098.44;;;30.63
11926;BMP180;6022;48.768;18.608;2023-09-08T08:07:52;99094.38;;;30.73
11926;BMP180;6022;48.768;18.608;2023-09-08T08:10:36;99094.53;;;29.90
11926;BMP180;6022;48.768;18.608;2023-09-08T08:13:06;99101.63;;;30.84
11926;BMP180;6022;48.768;18.608;2023-09-08T08:15:38;99105.50;;;31.19
11926;BMP180;6022;48.768;18.608;2023-09-08T08:18:09;99095.56;;;31.58
11926;BMP180;6022;48.768;18.608;2023-09-08T08:20:39;99084.84;;;32.32
11926;BMP180;6022;48.768;18.608;2023-09-08T08:23:07;99085.72;;;32.85
11926;BMP180;6022;48.768;18.608;2023-09-08T08:25:34;99089.22;;;32.44
11926;BMP180;6022;48.768;18.608;2023-09-08T08:28:04;99096.97;;;31.91
11926;BMP180;6022;48.768;18.608;2023-09-08T08:30:32;99089.38;;;31.76
11926;BMP180;6022;48.768;18.608;2023-09-08T08:33:00;99091.28;;;31.63
11926;BMP180;6022;48.768;18.608;2023-09-08T08:35:27;99091.41;;;31.13
11926;BMP180;6022;48.768;18.608;2023-09-08T08:37:54;99078.00;;;31.34
11926;BMP180;6022;48.768;18.608;2023-09-08T08:40:21;99072.38;;;30.87
11926;BMP180;6022;48.768;18.608;2023-09-08T08:42:57;99067.94;;;31.24
11926;BMP180;6022;48.768;18.608;2023-09-08T08:45:29;99072.06;;;31.08
11926;BMP180;6022;48.768;18.608;2023-09-08T08:47:58;99067.03;;;31.43
11926;BMP180;6022;48.768;18.608;2023-09-08T08:50:27;99070.53;;;31.62
11926;BMP180;6022;48.768;18.608;2023-09-08T08:52:55;99064.13;;;30.71
11926;BMP180;6022;48.768;18.608;2023-09-08T08:55:26;99066.97;;;32.04
11926;BMP180;6022;48.768;18.608;2023-09-08T08:58:03;99066.53;;;32.78
11926;BMP180;6022;48.768;18.608;2023-09-08T09:00:35;99062.03;;;33.44
11926;BMP180;6022;48.768;18.608;2023-09-08T09:03:05;99059.66;;;33.76
11926;BMP180;6022;48.768;18.608;2023-09-08T09:05:41;99060.44;;;33.14
11926;BMP180;6022;48.768;18.608;2023-09-08T09:08:18;99056.09;;;32.90
11926;BMP180;6022;48.768;18.608;2023-09-08T09:10:46;99058.25;;;31.80
11926;BMP180;6022;48.768;18.608;2023-09-08T09:13:13;99055.25;;;33.07
11926;BMP180;6022;48.768;18.608;2023-09-08T09:15:40;99050.00;;;34.11
11926;BMP180;6022;48.768;18.608;2023-09-08T09:18:08;99040.13;;;34.68
11926;BMP180;6022;48.768;18.608;2023-09-08T09:20:36;99046.41;;;34.39
11926;BMP180;6022;48.768;18.608;2023-09-08T09:23:03;99043.41;;;34.47
11926;BMP180;6022;48.768;18.608;2023-09-08T09:25:31;99040.94;;;34.80
11926;BMP180;6022;48.768;18.608;2023-09-08T09:28:02;99041.25;;;34.95
11926;BMP180;6022;48.768;18.608;2023-09-08T09:30:49;99038.94;;;35.14
11926;BMP180;6022;48.768;18.608;2023-09-08T09:33:18;99042.34;;;35.26
11926;BMP180;6022;48.768;18.608;2023-09-08T09:35:51;99040.94;;;35.51
11926;BMP180;6022;48.768;18.608;2023-09-08T09:38:20;99039.66;;;34.43
11926;BMP180;6022;48.768;18.608;2023-09-08T09:40:48;99031.63;;;34.27
11926;BMP180;6022;48.768;18.608;2023-09-08T09:43:20;99026.50;;;33.87
11926;BMP180;6022;48.768;18.608;2023-09-08T09:45:48;99028.00;;;33.94
11926;BMP180;6022;48.768;18.608;2023-09-08T09:48:20;99024.22;;;32.98
11926;BMP180;6022;48.768;18.608;2023-09-08T09:50:48;99019.53;;;32.71
11926;BMP180;6022;48.768;18.608;2023-09-08T09:53:16;99018.00;;;33.51
11926;BMP180;6022;48.768;18.608;2023-09-08T09:55:45;99021.56;;;33.16
11926;BMP180;6022;48.768;18.608;2023-09-08T09:58:12;99028.19;;;33.81
11926;BMP180;6022;48.768;18.608;2023-09-08T10:00:41;99020.78;;;34.12
11926;BMP180;6022;48.768;18.608;2023-09-08T10:03:15;99028.56;;;32.92
11926;BMP180;6022;48.768;18.608;2023-09-08T10:05:42;99021.50;;;31.80
11926;BMP180;6022;48.768;18.608;2023-09-08T10:08:09;99021.44;;;32.28
11926;BMP180;6022;48.768;18.608;2023-09-08T10:10:37;99018.66;;;31.88
11926;BMP180;6022;48.768;18.608;2023-09-08T10:13:06;99025.16;;;31.79
11926;BMP180;6022;48.768;18.608;2023-09-08T10:15:37;99016.91;;;32.17
11926;BMP180;6022;48.768;18.608;2023-09-08T10:18:06;99015.53;;;32.33
11926;BMP180;6022;48.768;18.608;2023-09-08T10:20:35;99016.06;;;33.17
11926;BMP180;6022;48.768;18.608;2023-09-08T10:23:20;99010.34;;;33.60
11926;BMP180;6022;48.768;18.608;2023-09-08T10:25:53;99015.38;;;33.51
11926;BMP180;6022;48.768;18.608;2023-09-08T10:28:22;99017.47;;;33.31
11926;BMP180;6022;48.768;18.608;2023-09-08T10:30:51;99001.88;;;33.81
11926;BMP180;6022;48.768;18.608;2023-09-08T10:33:19;99014.09;;;34.21
11926;BMP180;6022;48.768;18.608;2023-09-08T10:35:48;98999.34;;;34.32
11926;BMP180;6022;48.768;18.608;2023-09-08T10:38:30;99005.34;;;34.55
11926;BMP180;6022;48.768;18.608;2023-09-08T10:43:56;99011.28;;;33.25
11926;BMP180;6022;48.768;18.608;2023-09-08T10:46:30;99002.06;;;33.46
11926;BMP180;6022;48.768;18.608;2023-09-08T10:49:04;98997.44;;;33.30
11926;BMP180;6022;48.768;18.608;2023-09-08T10:51:31;98997.53;;;33.75
11926;BMP180;6022;48.768;18.608;2023-09-08T10:53:58;99004.78;;;32.87
11926;BMP180;6022;48.768;18.608;2023-09-08T10:56:48;99003.59;;;32.66
11926;BMP180;6022;48.768;18.608;2023-09-08T10:59:22;98993.94;;;32.95
11926;BMP180;6022;48.768;18.608;2023-09-08T11:01:56;98991.50;;;32.94
11926;BMP180;6022;48.768;18.608;2023-09-08T11:04:25;98998.03;;;33.32
11926;BMP180;6022;48.768;18.608;2023-09-08T11:06:52;98995.19;;;32.93
11926;BMP180;6022;48.768;18.608;2023-09-08T11:09:22;98992.16;;;33.30
11926;BMP180;6022;48.768;18.608;2023-09-08T11:11:53;98987.78;;;33.64
11926;BMP180;6022;48.768;18.608;2023-09-08T11:14:20;98989.94;;;34.24
11926;BMP180;6022;48.768;18.608;2023-09-08T11:16:47;98992.03;;;34.11
11926;BMP180;6022;48.768;18.608;2023-09-08T11:19:14;98996.94;;;34.19
11926;BMP180;6022;48.768;18.608;2023-09-08T11:21:43;98990.03;;;34.18
11926;BMP180;6022;48.768;18.608;2023-09-08T11:24:11;98988.69;;;33.07
11926;BMP180;6022;48.768;18.608;2023-09-08T11:26:42;98990.44;;;31.77
11926;BMP180;6022;48.768;18.608;2023-09-08T11:29:13;98979.84;;;32.43
11926;BMP180;6022;48.768;18.608;2023-09-08T11:31:44;98989.16;;;32.57
11926;BMP180;6022;48.768;18.608;2023-09-08T11:34:11;98977.69;;;33.39
11926;BMP180;6022;48.768;18.608;2023-09-08T11:36:40;98975.53;;;33.47
11926;BMP180;6022;48.768;18.608;2023-09-08T11:39:09;98967.19;;;32.98
11926;BMP180;6022;48.768;18.608;2023-09-08T11:41:37;98975.84;;;32.05
11926;BMP180;6022;48.768;18.608;2023-09-08T11:44:04;98966.81;;;32.66
11926;BMP180;6022;48.768;18.608;2023-09-08T11:46:32;98970.16;;;33.42
11926;BMP180;6022;48.768;18.608;2023-09-08T11:48:59;98967.06;;;33.68
11926;BMP180;6022;48.768;18.608;2023-09-08T11:51:26;98961.00;;;34.01
11926;BMP180;6022;48.768;18.608;2023-09-08T11:53:54;98959.28;;;33.61
11926;BMP180;6022;48.768;18.608;2023-09-08T11:56:22;98958.59;;;33.55
11926;BMP180;6022;48.768;18.608;2023-09-08T11:58:49;98957.47;;;33.96
11926;BMP180;6022;48.768;18.608;2023-09-08T12:01:17;98951.72;;;33.54
11926;BMP180;6022;48.768;18.608;2023-09-08T12:03:53;98951.59;;;34.05
11926;BMP180;6022;48.768;18.608;2023-09-08T12:06:27;98943.91;;;34.54
11926;BMP180;6022;48.768;18.608;2023-09-08T12:08:56;98944.09;;;34.64
11926;BMP180;6022;48.768;18.608;2023-09-08T12:11:33;98937.31;;;33.67
11926;BMP180;6022;48.768;18.608;2023-09-08T12:14:06;98937.88;;;33.92
11926;BMP180;6022;48.768;18.608;2023-09-08T12:16:34;98938.09;;;34.02
11926;BMP180;6022;48.768;18.608;2023-09-08T12:19:01;98936.19;;;34.25
11926;BMP180;6022;48.768;18.608;2023-09-08T12:21:28;98923.91;;;34.31
11926;BMP180;6022;48.768;18.608;2023-09-08T12:23:56;98926.78;;;34.29
11926;BMP180;6022;48.768;18.608;2023-09-08T12:26:27;98928.03;;;34.38
11926;BMP180;6022;48.768;18.608;2023-09-08T12:28:54;98919.63;;;34.13
11926;BMP180;6022;48.768;18.608;2023-09-08T12:31:22;98911.09;;;34.23
11926;BMP180;6022;48.768;18.608;2023-09-08T12:33:50;98915.97;;;33.01
11926;BMP180;6022;48.768;18.608;2023-09-08T12:36:19;98920.84;;;32.57
11926;BMP180;6022;48.768;18.608;2023-09-08T12:38:52;98913.13;;;33.02
11926;BMP180;6022;48.768;18.608;2023-09-08T12:41:23;98913.97;;;33.48
11926;BMP180;6022;48.768;18.608;2023-09-08T12:43:52;98920.25;;;33.70
11926;BMP180;6022;48.768;18.608;2023-09-08T12:46:20;98911.66;;;33.86
11926;BMP180;6022;48.768;18.608;2023-09-08T12:48:51;98898.66;;;33.45
11926;BMP180;6022;48.768;18.608;2023-09-08T12:51:18;98901.25;;;33.68
11926;BMP180;6022;48.768;18.608;2023-09-08T12:53:45;98911.31;;;33.59
11926;BMP180;6022;48.768;18.608;2023-09-08T12:56:13;98902.97;;;33.85
11926;BMP180;6022;48.768;18.608;2023-09-08T12:58:40;98900.53;;;33.16
11926;BMP180;6022;48.768;18.608;2023-09-08T13:01:07;98898.41;;;32.43
11926;BMP180;6022;48.768;18.608;2023-09-08T13:03:34;98892.84;;;32.62
11926;BMP180;6022;48.768;18.608;2023-09-08T13:06:02;98883.25;;;32.27
11926;BMP180;6022;48.768;18.608;2023-09-08T13:08:29;98885.19;;;32.90
11926;BMP180;6022;48.768;18.608;2023-09-08T13:10:56;98876.09;;;33.26
11926;BMP180;6022;48.768;18.608;2023-09-08T13:13:23;98872.22;;;33.40
11926;BMP180;6022;48.768;18.608;2023-09-08T13:15:50;98873.88;;;32.60
11926;BMP180;6022;48.768;18.608;2023-09-08T13:18:17;98865.59;;;32.75
11926;BMP180;6022;48.768;18.608;2023-09-08T13:20:44;98870.28;;;32.73
11926;BMP180;6022;48.768;18.608;2023-09-08T13:23:11;98876.47;;;32.20
11926;BMP180;6022;48.768;18.608;2023-09-08T13:25:39;98858.31;;;31.83
11926;BMP180;6022;48.768;18.608;2023-09-08T13:28:08;98866.19;;;32.00
11926;BMP180;6022;48.768;18.608;2023-09-08T13:30:35;98863.84;;;31.57
11926;BMP180;6022;48.768;18.608;2023-09-08T13:33:15;98867.53;;;31.56
11926;BMP180;6022;48.768;18.608;2023-09-08T13:35:42;98861.53;;;31.07
11926;BMP180;6022;48.768;18.608;2023-09-08T13:38:09;98871.13;;;30.58
11926;BMP180;6022;48.768;18.608;2023-09-08T13:40:39;98861.84;;;30.25
11926;BMP180;6022;48.768;18.608;2023-09-08T13:43:09;98854.44;;;30.77
11926;BMP180;6022;48.768;18.608;2023-09-08T13:45:38;98849.06;;;30.72
11926;BMP180;6022;48.768;18.608;2023-09-08T13:48:05;98848.41;;;31.07
11926;BMP180;6022;48.768;18.608;2023-09-08T13:50:33;98850.38;;;31.29
11926;BMP180;6022;48.768;18.608;2023-09-08T13:53:03;98846.19;;;31.28
11926;BMP180;6022;48.768;18.608;2023-09-08T13:55:31;98840.53;;;31.49
11926;BMP180;6022;48.768;18.608;2023-09-08T13:58:04;98838.66;;;31.56
11926;BMP180;6022;48.768;18.608;2023-09-08T14:00:37;98837.09;;;31.66
11926;BMP180;6022;48.768;18.608;2023-09-08T14:03:10;98835.88;;;31.51
11926;BMP180;6022;48.768;18.608;2023-09-08T14:05:40;98832.28;;;31.28
11926;BMP180;6022;48.768;18.608;2023-09-08T14:08:12;98831.94;;;31.00
11926;BMP180;6022;48.768;18.608;2023-09-08T14:10:49;98827.06;;;31.22
11926;BMP180;6022;48.768;18.608;2023-09-08T14:13:30;98824.06;;;31.00
11926;BMP180;6022;48.768;18.608;2023-09-08T14:15:57;98827.06;;;30.80
11926;BMP180;6022;48.768;18.608;2023-09-08T14:18:28;98816.97;;;30.77
11926;BMP180;6022;48.768;18.608;2023-09-08T14:20:55;98814.56;;;30.75
11926;BMP180;6022;48.768;18.608;2023-09-08T14:23:23;98818.69;;;30.65